sensor_id;sensor_type;location;lat;lon;timestamp;P1;durP1;ratioP1;P2;durP2;ratioP2
60704;SDS011;46545;38.014;-7.874;2023-02-15T00:01:44;11.07;;;3.80;;
60704;SDS011;46545;38.014;-7.874;2023-02-15T00:03:44;10.40;;;3.47;;
60704;SDS011;46545;38.014;-7.874;2023-02-15T00:05:47;10.05;;;3.50;;
60704;SDS011;46545;38.014;-7.874;2023-02-15T00:07:47;10.80;;;3.40;;
60704;SDS011;46545;38.014;-7.874;2023-02-15T00:09:48;15.25;;;4.47;;
60704;SDS011;46545;38.014;-7.874;2023-02-15T00:11:49;13.40;;;3.53;;
60704;SDS011;46545;38.014;-7.874;2023-02-15T00:13:52;14.52;;;4.50;;
60704;SDS011;46545;38.014;-7.874;2023-02-15T00:15:52;16.60;;;3.55;;
60704;SDS011;46545;38.014;-7.874;2023-02-15T00:17:53;11.40;;;4.28;;
60704;SDS011;46545;38.014;-7.874;2023-02-15T00:19:53;7.60;;;3.47;;
60704;SDS011;46545;38.014;-7.874;2023-02-15T00:21:54;14.30;;;4.35;;
60704;SDS011;46545;38.014;-7.874;2023-02-15T00:23:54;14.30;;;4.30;;
60704;SDS011;46545;38.014;-7.874;2023-02-15T00:28:04;13.10;;;3.47;;
60704;SDS011;46545;38.014;-7.874;2023-02-15T00:30:08;14.63;;;3.83;;
60704;SDS011;46545;38.014;-7.874;2023-02-15T00:32:09;12.30;;;4.20;;
60704;SDS011;46545;38.014;-7.874;2023-02-15T00:36:13;14.88;;;2.90;;
60704;SDS011;46545;38.014;-7.874;2023-02-15T00:38:13;9.10;;;2.97;;
60704;SDS011;46545;38.014;-7.874;2023-02-15T00:40:14;17.02;;;5.78;;
60704;SDS011;46545;38.014;-7.874;2023-02-15T00:42:14;11.50;;;4.05;;
60704;SDS011;46545;38.014;-7.874;2023-02-15T00:44:15;14.38;;;3.33;;
60704;SDS011;46545;38.014;-7.874;2023-02-15T00:46:15;15.82;;;3.95;;
60704;SDS011;46545;38.014;-7.874;2023-02-15T00:48:16;14.32;;;4.28;;
60704;SDS011;46545;38.014;-7.874;2023-02-15T00:50:16;13.73;;;3.85;;
60704;SDS011;46545;38.014;-7.874;2023-02-15T00:52:20;16.00;;;3.67;;
60704;SDS011;46545;38.014;-7.874;2023-02-15T00:54:20;11.07;;;4.03;;
60704;SDS011;46545;38.014;-7.874;2023-02-15T00:56:21;15.38;;;3.63;;
60704;SDS011;46545;38.014;-7.874;2023-02-15T00:58:21;8.65;;;3.25;;
60704;SDS011;46545;38.014;-7.874;2023-02-15T01:00:22;11.85;;;3.72;;
60704;SDS011;46545;38.014;-7.874;2023-02-15T01:02:23;19.73;;;4.25;;
60704;SDS011;46545;38.014;-7.874;2023-02-15T01:04:23;14.68;;;4.30;;
60704;SDS011;46545;38.014;-7.874;2023-02-15T01:06:24;13.27;;;3.63;;
60704;SDS011;46545;38.014;-7.874;2023-02-15T01:08:24;17.08;;;5.40;;
60704;SDS011;46545;38.014;-7.874;2023-02-15T01:10:25;12.38;;;4.50;;
60704;SDS011;46545;38.014;-7.874;2023-02-15T01:12:26;14.07;;;4.65;;
60704;SDS011;46545;38.014;-7.874;2023-02-15T01:14:26;18.05;;;4.75;;
60704;SDS011;46545;38.014;-7.874;2023-02-15T01:16:27;22.02;;;4.45;;
60704;SDS011;46545;38.014;-7.874;2023-02-15T01:18:28;14.38;;;4.30;;
60704;SDS011;46545;38.014;-7.874;2023-02-15T01:20:28;14.98;;;3.80;;
60704;SDS011;46545;38.014;-7.874;2023-02-15T01:22:30;18.77;;;4.88;;
60704;SDS011;46545;38.014;-7.874;2023-02-15T01:24:30;21.05;;;4.30;;
60704;SDS011;46545;38.014;-7.874;2023-02-15T01:26:31;13.65;;;4.10;;
60704;SDS011;46545;38.014;-7.874;2023-02-15T01:28:32;13.00;;;4.60;;
60704;SDS011;46545;38.014;-7.874;2023-02-15T01:30:33;15.27;;;4.80;;
60704;SDS011;46545;38.014;-7.874;2023-02-15T01:32:33;17.15;;;4.97;;
60704;SDS011;46545;38.014;-7.874;2023-02-15T01:34:33;18.13;;;5.20;;
60704;SDS011;46545;38.014;-7.874;2023-02-15T01:36:34;17.25;;;5.30;;
60704;SDS011;46545;38.014;-7.874;2023-02-15T01:38:35;18.27;;;5.57;;
60704;SDS011;46545;38.014;-7.874;2023-02-15T01:40:36;24.17;;;6.53;;
60704;SDS011;46545;38.014;-7.874;2023-02-15T01:42:36;23.17;;;7.15;;
60704;SDS011;46545;38.014;-7.874;2023-02-15T01:46:45;17.60;;;6.18;;
60704;SDS011;46545;38.014;-7.874;2023-02-15T01:48:48;20.63;;;8.48;;
60704;SDS011;46545;38.014;-7.874;2023-02-15T01:50:54;25.40;;;8.00;;
60704;SDS011;46545;38.014;-7.874;2023-02-15T01:55:06;14.38;;;6.28;;
60704;SDS011;46545;38.014;-7.874;2023-02-15T01:57:10;18.13;;;6.72;;
60704;SDS011;46545;38.014;-7.874;2023-02-15T01:59:13;12.30;;;5.93;;
60704;SDS011;46545;38.014;-7.874;2023-02-15T02:01:15;20.40;;;5.82;;
60704;SDS011;46545;38.014;-7.874;2023-02-15T02:03:16;18.70;;;6.40;;
60704;SDS011;46545;38.014;-7.874;2023-02-15T02:05:17;17.92;;;6.13;;
60704;SDS011;46545;38.014;-7.874;2023-02-15T02:07:20;12.13;;;5.47;;
60704;SDS011;46545;38.014;-7.874;2023-02-15T02:09:20;19.15;;;6.03;;
60704;SDS011;46545;38.014;-7.874;2023-02-15T02:11:21;17.73;;;5.25;;
60704;SDS011;46545;38.014;-7.874;2023-02-15T02:13:22;15.55;;;5.80;;
60704;SDS011;46545;38.014;-7.874;2023-02-15T02:15:28;14.50;;;4.88;;
60704;SDS011;46545;38.014;-7.874;2023-02-15T02:17:41;18.48;;;5.20;;
60704;SDS011;46545;38.014;-7.874;2023-02-15T02:26:22;13.82;;;4.22;;
60704;SDS011;46545;38.014;-7.874;2023-02-15T02:34:53;20.60;;;4.63;;
60704;SDS011;46545;38.014;-7.874;2023-02-15T02:39:23;14.18;;;4.10;;
60704;SDS011;46545;38.014;-7.874;2023-02-15T02:43:35;15.10;;;4.00;;
60704;SDS011;46545;38.014;-7.874;2023-02-15T02:45:50;13.65;;;3.85;;
60704;SDS011;46545;38.014;-7.874;2023-02-15T02:50:00;9.07;;;3.78;;
60704;SDS011;46545;38.014;-7.874;2023-02-15T02:52:02;8.63;;;3.33;;
60704;SDS011;46545;38.014;-7.874;2023-02-15T02:54:04;13.25;;;3.58;;
60704;SDS011;46545;38.014;-7.874;2023-02-15T02:56:28;6.93;;;3.95;;
60704;SDS011;46545;38.014;-7.874;2023-02-15T02:58:36;19.30;;;4.70;;
60704;SDS011;46545;38.014;-7.874;2023-02-15T03:00:39;15.63;;;4.75;;
60704;SDS011;46545;38.014;-7.874;2023-02-15T03:02:41;10.45;;;3.40;;
60704;SDS011;46545;38.014;-7.874;2023-02-15T03:04:47;17.52;;;4.82;;
60704;SDS011;46545;38.014;-7.874;2023-02-15T03:06:53;23.90;;;4.72;;
60704;SDS011;46545;38.014;-7.874;2023-02-15T03:09:00;14.77;;;3.88;;
60704;SDS011;46545;38.014;-7.874;2023-02-15T03:11:03;13.13;;;3.90;;
60704;SDS011;46545;38.014;-7.874;2023-02-15T03:13:03;11.18;;;3.88;;
60704;SDS011;46545;38.014;-7.874;2023-02-15T03:17:06;17.40;;;4.43;;
60704;SDS011;46545;38.014;-7.874;2023-02-15T03:19:08;19.38;;;4.47;;
60704;SDS011;46545;38.014;-7.874;2023-02-15T03:21:09;14.23;;;4.22;;
60704;SDS011;46545;38.014;-7.874;2023-02-15T03:23:23;14.07;;;3.78;;
60704;SDS011;46545;38.014;-7.874;2023-02-15T03:25:30;12.40;;;3.60;;
60704;SDS011;46545;38.014;-7.874;2023-02-15T03:27:33;14.18;;;4.05;;
60704;SDS011;46545;38.014;-7.874;2023-02-15T03:29:36;8.73;;;3.28;;
60704;SDS011;46545;38.014;-7.874;2023-02-15T03:31:38;7.82;;;4.47;;
60704;SDS011;46545;38.014;-7.874;2023-02-15T03:33:41;16.08;;;3.75;;
60704;SDS011;46545;38.014;-7.874;2023-02-15T03:35:44;10.77;;;3.72;;
60704;SDS011;46545;38.014;-7.874;2023-02-15T03:42:31;10.07;;;3.45;;
60704;SDS011;46545;38.014;-7.874;2023-02-15T03:44:36;16.27;;;4.60;;
60704;SDS011;46545;38.014;-7.874;2023-02-15T03:46:47;14.27;;;3.47;;
60704;SDS011;46545;38.014;-7.874;2023-02-15T03:48:51;16.90;;;3.72;;
60704;SDS011;46545;38.014;-7.874;2023-02-15T03:50:53;14.73;;;3.57;;
60704;SDS011;46545;38.014;-7.874;2023-02-15T03:53:14;9.27;;;3.33;;
60704;SDS011;46545;38.014;-7.874;2023-02-15T03:55:16;9.30;;;3.92;;
60704;SDS011;46545;38.014;-7.874;2023-02-15T03:57:18;9.35;;;3.63;;
60704;SDS011;46545;38.014;-7.874;2023-02-15T03:59:37;18.42;;;5.85;;
60704;SDS011;46545;38.014;-7.874;2023-02-15T04:02:04;8.57;;;3.10;;
60704;SDS011;46545;38.014;-7.874;2023-02-15T04:04:09;11.30;;;3.60;;
60704;SDS011;46545;38.014;-7.874;2023-02-15T04:06:10;18.30;;;6.30;;
60704;SDS011;46545;38.014;-7.874;2023-02-15T04:08:11;10.57;;;3.80;;
60704;SDS011;46545;38.014;-7.874;2023-02-15T04:10:12;9.30;;;3.70;;
60704;SDS011;46545;38.014;-7.874;2023-02-15T04:12:31;11.85;;;3.17;;
60704;SDS011;46545;38.014;-7.874;2023-02-15T04:14:31;14.10;;;3.75;;
60704;SDS011;46545;38.014;-7.874;2023-02-15T04:16:50;6.95;;;3.17;;
60704;SDS011;46545;38.014;-7.874;2023-02-15T04:18:50;9.80;;;3.38;;
60704;SDS011;46545;38.014;-7.874;2023-02-15T04:21:09;17.27;;;3.60;;
60704;SDS011;46545;38.014;-7.874;2023-02-15T04:23:27;14.45;;;3.72;;
60704;SDS011;46545;38.014;-7.874;2023-02-15T04:25:46;10.40;;;4.47;;
60704;SDS011;46545;38.014;-7.874;2023-02-15T04:27:47;13.10;;;3.45;;
60704;SDS011;46545;38.014;-7.874;2023-02-15T04:29:48;15.63;;;5.53;;
60704;SDS011;46545;38.014;-7.874;2023-02-15T04:31:50;10.32;;;3.72;;
60704;SDS011;46545;38.014;-7.874;2023-02-15T04:33:50;18.05;;;4.38;;
60704;SDS011;46545;38.014;-7.874;2023-02-15T04:35:51;7.50;;;3.00;;
60704;SDS011;46545;38.014;-7.874;2023-02-15T04:37:51;9.35;;;2.70;;
60704;SDS011;46545;38.014;-7.874;2023-02-15T04:39:52;8.85;;;3.35;;
60704;SDS011;46545;38.014;-7.874;2023-02-15T04:41:52;11.23;;;4.00;;
60704;SDS011;46545;38.014;-7.874;2023-02-15T04:43:53;7.30;;;3.50;;
60704;SDS011;46545;38.014;-7.874;2023-02-15T04:45:53;13.05;;;3.70;;
60704;SDS011;46545;38.014;-7.874;2023-02-15T04:47:54;7.88;;;3.00;;
60704;SDS011;46545;38.014;-7.874;2023-02-15T04:49:54;11.02;;;3.20;;
60704;SDS011;46545;38.014;-7.874;2023-02-15T04:51:54;8.88;;;3.75;;
60704;SDS011;46545;38.014;-7.874;2023-02-15T04:53:55;10.15;;;2.88;;
60704;SDS011;46545;38.014;-7.874;2023-02-15T04:55:56;11.75;;;3.65;;
60704;SDS011;46545;38.014;-7.874;2023-02-15T04:57:57;9.90;;;3.47;;
60704;SDS011;46545;38.014;-7.874;2023-02-15T04:59:57;14.02;;;4.15;;
60704;SDS011;46545;38.014;-7.874;2023-02-15T05:01:59;7.00;;;2.63;;
60704;SDS011;46545;38.014;-7.874;2023-02-15T05:03:59;11.75;;;3.53;;
60704;SDS011;46545;38.014;-7.874;2023-02-15T05:06:00;8.52;;;3.00;;
60704;SDS011;46545;38.014;-7.874;2023-02-15T05:08:00;14.80;;;3.47;;
60704;SDS011;46545;38.014;-7.874;2023-02-15T05:10:01;12.57;;;4.00;;
60704;SDS011;46545;38.014;-7.874;2023-02-15T05:12:01;13.20;;;3.85;;
60704;SDS011;46545;38.014;-7.874;2023-02-15T05:14:02;8.25;;;2.92;;
60704;SDS011;46545;38.014;-7.874;2023-02-15T05:16:02;9.30;;;2.95;;
60704;SDS011;46545;38.014;-7.874;2023-02-15T05:18:03;13.93;;;4.60;;
60704;SDS011;46545;38.014;-7.874;2023-02-15T05:20:03;11.00;;;3.45;;
60704;SDS011;46545;38.014;-7.874;2023-02-15T05:22:04;3.75;;;2.53;;
60704;SDS011;46545;38.014;-7.874;2023-02-15T05:24:04;10.15;;;4.10;;
60704;SDS011;46545;38.014;-7.874;2023-02-15T05:26:25;13.07;;;3.75;;
60704;SDS011;46545;38.014;-7.874;2023-02-15T05:28:44;10.40;;;3.40;;
60704;SDS011;46545;38.014;-7.874;2023-02-15T05:30:45;10.30;;;3.70;;
60704;SDS011;46545;38.014;-7.874;2023-02-15T05:32:45;8.57;;;3.10;;
60704;SDS011;46545;38.014;-7.874;2023-02-15T05:34:46;13.35;;;3.42;;
60704;SDS011;46545;38.014;-7.874;2023-02-15T05:36:46;8.80;;;2.92;;
60704;SDS011;46545;38.014;-7.874;2023-02-15T05:38:47;7.13;;;3.20;;
60704;SDS011;46545;38.014;-7.874;2023-02-15T05:40:47;10.20;;;3.85;;
60704;SDS011;46545;38.014;-7.874;2023-02-15T05:42:47;8.52;;;3.60;;
60704;SDS011;46545;38.014;-7.874;2023-02-15T05:44:48;15.40;;;3.60;;
60704;SDS011;46545;38.014;-7.874;2023-02-15T05:46:48;9.50;;;3.50;;
60704;SDS011;46545;38.014;-7.874;2023-02-15T05:48:49;11.48;;;3.60;;
60704;SDS011;46545;38.014;-7.874;2023-02-15T05:51:09;7.70;;;2.97;;
60704;SDS011;46545;38.014;-7.874;2023-02-15T05:53:10;22.85;;;3.67;;
60704;SDS011;46545;38.014;-7.874;2023-02-15T05:55:10;11.50;;;5.18;;
60704;SDS011;46545;38.014;-7.874;2023-02-15T05:57:10;18.20;;;3.85;;
60704;SDS011;46545;38.014;-7.874;2023-02-15T05:59:11;7.93;;;2.90;;
60704;SDS011;46545;38.014;-7.874;2023-02-15T06:01:13;7.45;;;3.53;;
60704;SDS011;46545;38.014;-7.874;2023-02-15T06:03:14;18.67;;;6.03;;
60704;SDS011;46545;38.014;-7.874;2023-02-15T06:05:14;9.27;;;3.35;;
60704;SDS011;46545;38.014;-7.874;2023-02-15T06:07:15;13.32;;;3.70;;
60704;SDS011;46545;38.014;-7.874;2023-02-15T06:09:15;8.15;;;3.28;;
60704;SDS011;46545;38.014;-7.874;2023-02-15T06:11:18;5.78;;;2.90;;
60704;SDS011;46545;38.014;-7.874;2023-02-15T06:13:18;7.75;;;3.75;;
60704;SDS011;46545;38.014;-7.874;2023-02-15T06:15:19;16.88;;;3.85;;
60704;SDS011;46545;38.014;-7.874;2023-02-15T06:17:19;10.75;;;3.83;;
60704;SDS011;46545;38.014;-7.874;2023-02-15T06:19:21;9.63;;;4.00;;
60704;SDS011;46545;38.014;-7.874;2023-02-15T06:21:22;8.73;;;3.38;;
60704;SDS011;46545;38.014;-7.874;2023-02-15T06:23:23;11.27;;;3.53;;
60704;SDS011;46545;38.014;-7.874;2023-02-15T06:25:23;15.20;;;3.92;;
60704;SDS011;46545;38.014;-7.874;2023-02-15T06:27:24;11.60;;;3.78;;
60704;SDS011;46545;38.014;-7.874;2023-02-15T06:29:25;12.00;;;3.67;;
60704;SDS011;46545;38.014;-7.874;2023-02-15T06:31:25;10.60;;;3.75;;
60704;SDS011;46545;38.014;-7.874;2023-02-15T06:33:26;12.23;;;4.30;;
60704;SDS011;46545;38.014;-7.874;2023-02-15T06:35:26;20.95;;;4.93;;
60704;SDS011;46545;38.014;-7.874;2023-02-15T06:37:26;10.93;;;3.45;;
60704;SDS011;46545;38.014;-7.874;2023-02-15T06:39:27;10.55;;;5.18;;
60704;SDS011;46545;38.014;-7.874;2023-02-15T06:41:27;10.23;;;3.60;;
60704;SDS011;46545;38.014;-7.874;2023-02-15T06:43:28;11.38;;;3.75;;
60704;SDS011;46545;38.014;-7.874;2023-02-15T06:45:28;12.07;;;3.65;;
60704;SDS011;46545;38.014;-7.874;2023-02-15T06:47:29;14.80;;;3.63;;
60704;SDS011;46545;38.014;-7.874;2023-02-15T06:49:29;13.68;;;3.95;;
60704;SDS011;46545;38.014;-7.874;2023-02-15T06:51:30;7.80;;;3.75;;
60704;SDS011;46545;38.014;-7.874;2023-02-15T06:53:30;15.07;;;3.25;;
60704;SDS011;46545;38.014;-7.874;2023-02-15T06:55:31;16.60;;;4.50;;
60704;SDS011;46545;38.014;-7.874;2023-02-15T06:57:31;8.95;;;3.75;;
60704;SDS011;46545;38.014;-7.874;2023-02-15T06:59:33;12.30;;;3.38;;
60704;SDS011;46545;38.014;-7.874;2023-02-15T07:01:33;9.48;;;3.50;;
60704;SDS011;46545;38.014;-7.874;2023-02-15T07:03:34;12.38;;;3.17;;
60704;SDS011;46545;38.014;-7.874;2023-02-15T07:05:35;11.82;;;3.63;;
60704;SDS011;46545;38.014;-7.874;2023-02-15T07:07:35;9.52;;;3.70;;
60704;SDS011;46545;38.014;-7.874;2023-02-15T07:09:36;8.07;;;3.35;;
60704;SDS011;46545;38.014;-7.874;2023-02-15T07:11:36;6.93;;;3.17;;
60704;SDS011;46545;38.014;-7.874;2023-02-15T07:13:55;5.93;;;3.08;;
60704;SDS011;46545;38.014;-7.874;2023-02-15T07:15:56;8.13;;;2.83;;
60704;SDS011;46545;38.014;-7.874;2023-02-15T07:17:57;5.95;;;2.88;;
60704;SDS011;46545;38.014;-7.874;2023-02-15T07:19:58;6.43;;;3.50;;
60704;SDS011;46545;38.014;-7.874;2023-02-15T07:21:58;9.77;;;3.33;;
60704;SDS011;46545;38.014;-7.874;2023-02-15T07:23:58;10.45;;;2.90;;
60704;SDS011;46545;38.014;-7.874;2023-02-15T07:25:59;11.10;;;4.18;;
60704;SDS011;46545;38.014;-7.874;2023-02-15T07:28:01;6.60;;;3.05;;
60704;SDS011;46545;38.014;-7.874;2023-02-15T07:30:02;17.58;;;4.22;;
60704;SDS011;46545;38.014;-7.874;2023-02-15T07:32:03;12.13;;;3.38;;
60704;SDS011;46545;38.014;-7.874;2023-02-15T07:34:05;12.38;;;3.28;;
60704;SDS011;46545;38.014;-7.874;2023-02-15T07:36:05;5.53;;;2.78;;
60704;SDS011;46545;38.014;-7.874;2023-02-15T07:38:06;8.35;;;3.00;;
60704;SDS011;46545;38.014;-7.874;2023-02-15T07:40:06;11.05;;;3.42;;
60704;SDS011;46545;38.014;-7.874;2023-02-15T07:42:07;11.15;;;3.53;;
60704;SDS011;46545;38.014;-7.874;2023-02-15T07:44:13;10.93;;;3.88;;
60704;SDS011;46545;38.014;-7.874;2023-02-15T07:46:14;9.38;;;3.10;;
60704;SDS011;46545;38.014;-7.874;2023-02-15T07:48:15;16.77;;;3.20;;
60704;SDS011;46545;38.014;-7.874;2023-02-15T07:50:15;6.28;;;2.88;;
60704;SDS011;46545;38.014;-7.874;2023-02-15T07:52:16;5.78;;;2.78;;
60704;SDS011;46545;38.014;-7.874;2023-02-15T07:54:16;15.77;;;5.05;;
60704;SDS011;46545;38.014;-7.874;2023-02-15T07:56:17;17.05;;;2.72;;
60704;SDS011;46545;38.014;-7.874;2023-02-15T07:58:17;11.40;;;2.80;;
60704;SDS011;46545;38.014;-7.874;2023-02-15T08:00:19;6.68;;;2.42;;
60704;SDS011;46545;38.014;-7.874;2023-02-15T08:02:24;13.57;;;4.00;;
60704;SDS011;46545;38.014;-7.874;2023-02-15T08:04:25;4.15;;;2.90;;
60704;SDS011;46545;38.014;-7.874;2023-02-15T08:06:26;7.68;;;3.33;;
60704;SDS011;46545;38.014;-7.874;2023-02-15T08:08:27;8.48;;;3.00;;
60704;SDS011;46545;38.014;-7.874;2023-02-15T08:10:30;6.45;;;2.75;;
60704;SDS011;46545;38.014;-7.874;2023-02-15T08:12:49;6.65;;;2.45;;
60704;SDS011;46545;38.014;-7.874;2023-02-15T08:14:50;7.72;;;3.03;;
60704;SDS011;46545;38.014;-7.874;2023-02-15T08:16:51;11.00;;;2.35;;
60704;SDS011;46545;38.014;-7.874;2023-02-15T08:18:52;17.63;;;3.42;;
60704;SDS011;46545;38.014;-7.874;2023-02-15T08:20:53;10.95;;;3.22;;
60704;SDS011;46545;38.014;-7.874;2023-02-15T08:22:53;10.05;;;3.20;;
60704;SDS011;46545;38.014;-7.874;2023-02-15T08:24:54;5.15;;;2.70;;
60704;SDS011;46545;38.014;-7.874;2023-02-15T08:26:54;6.45;;;3.53;;
60704;SDS011;46545;38.014;-7.874;2023-02-15T08:28:55;8.05;;;3.03;;
60704;SDS011;46545;38.014;-7.874;2023-02-15T08:31:03;8.45;;;3.60;;
60704;SDS011;46545;38.014;-7.874;2023-02-15T08:33:04;12.45;;;3.28;;
60704;SDS011;46545;38.014;-7.874;2023-02-15T08:35:04;12.88;;;3.10;;
60704;SDS011;46545;38.014;-7.874;2023-02-15T08:37:05;6.47;;;3.00;;
60704;SDS011;46545;38.014;-7.874;2023-02-15T08:39:06;4.35;;;2.80;;
60704;SDS011;46545;38.014;-7.874;2023-02-15T08:41:14;8.15;;;3.35;;
60704;SDS011;46545;38.014;-7.874;2023-02-15T08:43:15;8.88;;;3.20;;
60704;SDS011;46545;38.014;-7.874;2023-02-15T08:45:15;13.68;;;3.97;;
60704;SDS011;46545;38.014;-7.874;2023-02-15T08:47:16;7.90;;;2.53;;
60704;SDS011;46545;38.014;-7.874;2023-02-15T08:49:17;10.68;;;3.45;;
60704;SDS011;46545;38.014;-7.874;2023-02-15T08:51:19;17.35;;;3.80;;
60704;SDS011;46545;38.014;-7.874;2023-02-15T08:53:20;10.43;;;2.95;;
60704;SDS011;46545;38.014;-7.874;2023-02-15T08:55:22;10.20;;;3.17;;
60704;SDS011;46545;38.014;-7.874;2023-02-15T08:57:22;9.90;;;2.63;;
60704;SDS011;46545;38.014;-7.874;2023-02-15T08:59:23;9.98;;;2.60;;
60704;SDS011;46545;38.014;-7.874;2023-02-15T09:01:25;7.55;;;2.80;;
60704;SDS011;46545;38.014;-7.874;2023-02-15T09:03:26;6.03;;;2.70;;
60704;SDS011;46545;38.014;-7.874;2023-02-15T09:05:26;10.50;;;4.10;;
60704;SDS011;46545;38.014;-7.874;2023-02-15T09:07:27;9.88;;;2.58;;
60704;SDS011;46545;38.014;-7.874;2023-02-15T09:09:28;9.80;;;2.65;;
60704;SDS011;46545;38.014;-7.874;2023-02-15T09:11:30;10.98;;;3.40;;
60704;SDS011;46545;38.014;-7.874;2023-02-15T09:13:31;8.48;;;3.60;;
60704;SDS011;46545;38.014;-7.874;2023-02-15T09:15:31;12.23;;;3.30;;
60704;SDS011;46545;38.014;-7.874;2023-02-15T09:17:31;10.77;;;3.30;;
60704;SDS011;46545;38.014;-7.874;2023-02-15T09:19:32;22.63;;;6.72;;
60704;SDS011;46545;38.014;-7.874;2023-02-15T09:21:33;7.95;;;2.85;;
60704;SDS011;46545;38.014;-7.874;2023-02-15T09:23:35;13.55;;;3.20;;
60704;SDS011;46545;38.014;-7.874;2023-02-15T09:25:36;12.85;;;3.47;;
60704;SDS011;46545;38.014;-7.874;2023-02-15T09:27:36;6.75;;;3.35;;
60704;SDS011;46545;38.014;-7.874;2023-02-15T09:29:37;9.43;;;3.50;;
60704;SDS011;46545;38.014;-7.874;2023-02-15T09:31:41;7.13;;;3.25;;
60704;SDS011;46545;38.014;-7.874;2023-02-15T09:33:45;11.25;;;3.58;;
60704;SDS011;46545;38.014;-7.874;2023-02-15T09:35:45;15.27;;;2.70;;
60704;SDS011;46545;38.014;-7.874;2023-02-15T09:37:46;11.57;;;2.70;;
60704;SDS011;46545;38.014;-7.874;2023-02-15T09:39:46;9.90;;;3.25;;
60704;SDS011;46545;38.014;-7.874;2023-02-15T09:42:10;14.05;;;2.90;;
60704;SDS011;46545;38.014;-7.874;2023-02-15T09:48:24;7.93;;;3.83;;
60704;SDS011;46545;38.014;-7.874;2023-02-15T09:51:18;8.82;;;3.03;;
60704;SDS011;46545;38.014;-7.874;2023-02-15T09:56:58;9.73;;;2.95;;
60704;SDS011;46545;38.014;-7.874;2023-02-15T10:03:09;4.93;;;2.13;;
60704;SDS011;46545;38.014;-7.874;2023-02-15T10:14:18;10.80;;;2.67;;
60704;SDS011;46545;38.014;-7.874;2023-02-15T10:18:40;9.90;;;2.30;;
60704;SDS011;46545;38.014;-7.874;2023-02-15T10:25:02;11.20;;;3.13;;
60704;SDS011;46545;38.014;-7.874;2023-02-15T10:27:13;4.45;;;2.35;;
60704;SDS011;46545;38.014;-7.874;2023-02-15T10:33:40;4.05;;;2.63;;
60704;SDS011;46545;38.014;-7.874;2023-02-15T10:35:58;5.53;;;3.03;;
60704;SDS011;46545;38.014;-7.874;2023-02-15T10:40:46;7.55;;;2.90;;
60704;SDS011;46545;38.014;-7.874;2023-02-15T11:01:44;11.15;;;2.30;;
60704;SDS011;46545;38.014;-7.874;2023-02-15T11:07:55;8.57;;;2.53;;
60704;SDS011;46545;38.014;-7.874;2023-02-15T11:10:01;7.43;;;2.65;;
60704;SDS011;46545;38.014;-7.874;2023-02-15T11:12:07;8.95;;;2.42;;
60704;SDS011;46545;38.014;-7.874;2023-02-15T11:14:14;14.15;;;3.83;;
60704;SDS011;46545;38.014;-7.874;2023-02-15T11:18:19;6.57;;;2.38;;
60704;SDS011;46545;38.014;-7.874;2023-02-15T11:20:24;8.95;;;2.53;;
60704;SDS011;46545;38.014;-7.874;2023-02-15T11:22:25;11.05;;;2.72;;
60704;SDS011;46545;38.014;-7.874;2023-02-15T11:24:29;9.40;;;2.58;;
60704;SDS011;46545;38.014;-7.874;2023-02-15T11:26:43;11.25;;;2.67;;
60704;SDS011;46545;38.014;-7.874;2023-02-15T11:30:53;8.93;;;2.90;;
60704;SDS011;46545;38.014;-7.874;2023-02-15T11:32:55;6.20;;;2.60;;
60704;SDS011;46545;38.014;-7.874;2023-02-15T11:37:14;4.05;;;2.05;;
60704;SDS011;46545;38.014;-7.874;2023-02-15T11:39:17;9.50;;;2.92;;
60704;SDS011;46545;38.014;-7.874;2023-02-15T11:41:20;15.70;;;3.88;;
60704;SDS011;46545;38.014;-7.874;2023-02-15T11:43:23;8.20;;;3.08;;
60704;SDS011;46545;38.014;-7.874;2023-02-15T11:45:30;5.20;;;2.28;;
60704;SDS011;46545;38.014;-7.874;2023-02-15T11:47:31;9.25;;;3.05;;
60704;SDS011;46545;38.014;-7.874;2023-02-15T11:49:32;5.18;;;2.17;;
60704;SDS011;46545;38.014;-7.874;2023-02-15T11:51:33;6.85;;;3.92;;
60704;SDS011;46545;38.014;-7.874;2023-02-15T11:53:36;9.73;;;4.15;;
60704;SDS011;46545;38.014;-7.874;2023-02-15T11:55:37;10.35;;;2.95;;
60704;SDS011;46545;38.014;-7.874;2023-02-15T11:57:39;9.65;;;3.38;;
60704;SDS011;46545;38.014;-7.874;2023-02-15T11:59:43;9.65;;;2.88;;
60704;SDS011;46545;38.014;-7.874;2023-02-15T12:01:45;7.35;;;2.67;;
60704;SDS011;46545;38.014;-7.874;2023-02-15T12:03:54;11.35;;;2.67;;
60704;SDS011;46545;38.014;-7.874;2023-02-15T12:06:01;4.63;;;2.47;;
60704;SDS011;46545;38.014;-7.874;2023-02-15T12:08:02;14.65;;;2.80;;
60704;SDS011;46545;38.014;-7.874;2023-02-15T12:10:05;11.57;;;2.67;;
60704;SDS011;46545;38.014;-7.874;2023-02-15T12:14:20;11.27;;;2.83;;
60704;SDS011;46545;38.014;-7.874;2023-02-15T12:16:21;9.73;;;2.50;;
60704;SDS011;46545;38.014;-7.874;2023-02-15T12:20:34;13.70;;;4.40;;
60704;SDS011;46545;38.014;-7.874;2023-02-15T12:22:36;14.35;;;4.03;;
60704;SDS011;46545;38.014;-7.874;2023-02-15T12:24:38;9.82;;;2.83;;
60704;SDS011;46545;38.014;-7.874;2023-02-15T12:26:44;4.70;;;2.50;;
60704;SDS011;46545;38.014;-7.874;2023-02-15T12:28:44;11.50;;;3.47;;
60704;SDS011;46545;38.014;-7.874;2023-02-15T12:30:49;9.98;;;3.10;;
60704;SDS011;46545;38.014;-7.874;2023-02-15T12:32:54;9.05;;;3.65;;
60704;SDS011;46545;38.014;-7.874;2023-02-15T12:37:25;13.20;;;3.28;;
60704;SDS011;46545;38.014;-7.874;2023-02-15T12:41:27;8.13;;;2.80;;
60704;SDS011;46545;38.014;-7.874;2023-02-15T12:43:35;6.80;;;2.97;;
60704;SDS011;46545;38.014;-7.874;2023-02-15T12:45:36;8.80;;;3.15;;
60704;SDS011;46545;38.014;-7.874;2023-02-15T12:47:37;7.35;;;2.63;;
60704;SDS011;46545;38.014;-7.874;2023-02-15T12:49:38;10.05;;;2.40;;
60704;SDS011;46545;38.014;-7.874;2023-02-15T12:53:48;9.77;;;2.85;;
60704;SDS011;46545;38.014;-7.874;2023-02-15T12:55:55;9.25;;;3.80;;
60704;SDS011;46545;38.014;-7.874;2023-02-15T13:02:21;9.13;;;3.70;;
60704;SDS011;46545;38.014;-7.874;2023-02-15T13:04:26;11.60;;;2.83;;
60704;SDS011;46545;38.014;-7.874;2023-02-15T13:06:28;5.72;;;2.65;;
60704;SDS011;46545;38.014;-7.874;2023-02-15T13:08:30;6.30;;;2.55;;
60704;SDS011;46545;38.014;-7.874;2023-02-15T13:10:35;15.02;;;3.10;;
60704;SDS011;46545;38.014;-7.874;2023-02-15T13:12:37;8.00;;;2.70;;
60704;SDS011;46545;38.014;-7.874;2023-02-15T13:14:41;11.02;;;3.55;;
60704;SDS011;46545;38.014;-7.874;2023-02-15T13:16:44;7.43;;;4.70;;
60704;SDS011;46545;38.014;-7.874;2023-02-15T13:18:45;13.23;;;3.40;;
60704;SDS011;46545;38.014;-7.874;2023-02-15T13:20:46;5.20;;;2.35;;
60704;SDS011;46545;38.014;-7.874;2023-02-15T13:22:46;7.88;;;3.05;;
60704;SDS011;46545;38.014;-7.874;2023-02-15T13:24:50;6.10;;;2.63;;
60704;SDS011;46545;38.014;-7.874;2023-02-15T13:26:55;11.75;;;3.30;;
60704;SDS011;46545;38.014;-7.874;2023-02-15T13:28:58;7.55;;;2.35;;
60704;SDS011;46545;38.014;-7.874;2023-02-15T13:31:01;5.47;;;2.50;;
60704;SDS011;46545;38.014;-7.874;2023-02-15T13:33:05;4.45;;;2.85;;
60704;SDS011;46545;38.014;-7.874;2023-02-15T13:35:10;9.40;;;3.03;;
60704;SDS011;46545;38.014;-7.874;2023-02-15T13:38:15;10.73;;;3.70;;
60704;SDS011;46545;38.014;-7.874;2023-02-15T13:48:46;12.18;;;3.53;;
60704;SDS011;46545;38.014;-7.874;2023-02-15T13:51:03;11.52;;;3.15;;
60704;SDS011;46545;38.014;-7.874;2023-02-15T13:59:44;8.95;;;3.05;;
60704;SDS011;46545;38.014;-7.874;2023-02-15T14:01:56;11.85;;;2.97;;
60704;SDS011;46545;38.014;-7.874;2023-02-15T14:10:51;8.57;;;3.10;;
60704;SDS011;46545;38.014;-7.874;2023-02-15T14:26:06;9.25;;;3.83;;
60704;SDS011;46545;38.014;-7.874;2023-02-15T14:28:20;10.32;;;2.95;;
60704;SDS011;46545;38.014;-7.874;2023-02-15T14:30:28;5.82;;;3.00;;
60704;SDS011;46545;38.014;-7.874;2023-02-15T14:34:45;7.15;;;3.15;;
60704;SDS011;46545;38.014;-7.874;2023-02-15T14:36:48;10.43;;;3.25;;